createdAt,value
2022-08-03T00:03:26.731Z,89.82
2022-08-03T00:13:28.486Z,87.24
2022-08-03T00:23:51.302Z,90.91
2022-08-03T00:34:02.239Z,90.89
2022-08-03T00:44:05.657Z,93.07
2022-08-03T00:54:07.516Z,93.40
2022-08-03T01:04:09.247Z,94.15
2022-08-03T01:14:20.018Z,96.19
2022-08-03T01:25:02.694Z,97.22
2022-08-03T01:35:16.960Z,97.60
2022-08-03T01:45:22.960Z,98.01
2022-08-03T01:55:30.083Z,99.85
2022-08-03T02:05:33.274Z,100.00
2022-08-03T02:15:41.432Z,100.00
2022-08-03T02:25:47.646Z,100.00
2022-08-03T02:35:51.492Z,100.00
2022-08-03T02:45:54.686Z,100.00
2022-08-03T02:55:59.925Z,100.00
2022-08-03T03:06:05.642Z,100.00
2022-08-03T03:16:09.624Z,100.00
2022-08-03T03:26:14.463Z,100.00
2022-08-03T03:36:16.247Z,100.00
2022-08-03T03:46:17.838Z,100.00
2022-08-03T03:56:19.659Z,100.00
2022-08-03T04:06:42.084Z,100.00
2022-08-03T04:16:55.439Z,100.00
2022-08-03T04:26:59.222Z,100.00
2022-08-03T04:37:09.144Z,100.00
2022-08-03T04:47:15.840Z,100.00
2022-08-03T04:57:22.339Z,100.00
2022-08-03T05:07:25.450Z,100.00
2022-08-03T05:17:27.439Z,100.00
2022-08-03T05:27:29.326Z,100.00
2022-08-03T05:37:33.353Z,100.00
2022-08-03T05:47:35.074Z,99.91
2022-08-03T05:57:38.565Z,97.86
2022-08-03T06:07:40.311Z,92.89
2022-08-03T06:17:51.048Z,89.76
2022-08-03T06:27:53.791Z,87.16
2022-08-03T06:37:58.431Z,83.67
2022-08-03T06:48:06.568Z,76.87
2022-08-03T06:58:08.197Z,72.27
2022-08-03T07:08:10.361Z,68.68
2022-08-03T07:18:13.124Z,64.11
2022-08-03T07:28:18.176Z,61.84
2022-08-03T07:38:21.202Z,60.11
2022-08-03T07:48:24.034Z,58.70
2022-08-03T07:58:25.699Z,53.89
2022-08-03T08:08:32.555Z,50.86
2022-08-03T08:18:34.586Z,49.94
2022-08-03T08:28:41.431Z,47.32
2022-08-03T08:38:45.201Z,45.25
2022-08-03T08:48:49.062Z,45.17
2022-08-03T08:59:03.908Z,43.11
2022-08-03T09:09:07.221Z,41.74
2022-08-03T09:19:14.312Z,42.72
2022-08-03T09:29:25.755Z,39.84
2022-08-03T09:39:41.161Z,35.39
2022-08-03T09:50:01.917Z,31.47
2022-08-03T10:00:16.504Z,31.75
2022-08-03T10:10:30.496Z,30.36
2022-08-03T10:20:41.643Z,30.41
2022-08-03T10:30:47.735Z,29.47
2022-08-03T10:40:57.158Z,34.76
2022-08-03T10:51:02.141Z,35.42
2022-08-03T11:01:09.060Z,31.36
2022-08-03T11:11:20.992Z,25.60
2022-08-03T11:21:50.892Z,24.00
2022-08-03T11:31:52.634Z,18.59
2022-08-03T11:41:54.372Z,19.48
2022-08-03T11:51:56.225Z,21.37
2022-08-03T12:02:12.130Z,18.65
2022-08-03T12:12:16.478Z,15.91
2022-08-03T12:22:34.392Z,13.81
2022-08-03T12:32:37.098Z,14.49
2022-08-03T12:42:41.660Z,10.40
2022-08-03T12:52:45.186Z,12.36
2022-08-03T13:13:41.566Z,11.69
2022-08-03T13:23:46.618Z,11.14
2022-08-03T13:33:50.323Z,9.73
2022-08-03T13:44:18.361Z,11.48
2022-08-03T13:54:14.682Z,10.01
2022-08-03T14:04:22.029Z,8.35
2022-08-03T14:14:25.289Z,10.96
2022-08-03T14:24:28.100Z,21.22
2022-08-03T14:34:29.860Z,22.96
2022-08-03T14:44:33.623Z,25.50
2022-08-03T14:54:35.938Z,15.22
2022-08-03T15:04:37.874Z,12.13
2022-08-03T15:14:40.838Z,11.00
2022-08-03T15:24:45.395Z,10.70
2022-08-03T15:35:05.747Z,11.31
2022-08-03T15:45:09.962Z,11.23
2022-08-03T15:55:15.440Z,11.17
2022-08-03T16:05:21.115Z,12.54
2022-08-03T16:15:22.839Z,13.51
2022-08-03T16:25:25.098Z,13.11
2022-08-03T16:35:27.183Z,13.91
2022-08-03T16:45:29.247Z,15.16
2022-08-03T16:55:48.962Z,15.59
2022-08-03T17:05:59.631Z,18.46
2022-08-03T17:16:05.010Z,20.63
2022-08-03T17:26:21.497Z,24.39
2022-08-03T17:36:41.941Z,25.41
2022-08-03T17:46:51.484Z,30.06
2022-08-03T17:57:22.594Z,31.95
2022-08-03T18:07:41.641Z,33.92
2022-08-03T18:17:55.765Z,35.64
2022-08-03T18:28:08.575Z,37.07
2022-08-03T18:38:16.635Z,38.39
2022-08-03T18:48:39.955Z,39.16
2022-08-03T18:59:02.488Z,40.51
2022-08-03T19:09:15.688Z,43.55
2022-08-03T19:19:24.684Z,45.61
2022-08-03T19:29:56.485Z,45.45
2022-08-03T19:39:56.415Z,48.51
2022-08-03T19:50:05.651Z,51.26
2022-08-03T20:00:13.895Z,53.57
2022-08-03T20:10:18.576Z,51.72
2022-08-03T20:20:24.068Z,51.89
2022-08-03T20:30:28.739Z,52.22
2022-08-03T20:40:30.438Z,52.00
2022-08-03T20:50:32.141Z,51.63
2022-08-03T21:00:33.815Z,52.98
2022-08-03T21:10:41.966Z,53.54
2022-08-03T21:20:46.160Z,54.40
2022-08-03T21:30:47.843Z,54.31
2022-08-03T21:40:51.930Z,56.88
2022-08-03T21:50:54.034Z,58.47
2022-08-03T22:00:56.579Z,59.95
2022-08-03T22:10:59.338Z,61.93
2022-08-03T22:21:07.631Z,62.75
2022-08-03T22:31:31.010Z,65.23
2022-08-03T22:41:31.848Z,66.60
2022-08-03T22:51:35.445Z,69.25
2022-08-03T23:01:41.387Z,70.39
2022-08-03T23:11:46.079Z,70.93
2022-08-03T23:21:53.445Z,68.83
2022-08-03T23:32:05.216Z,67.96
2022-08-03T23:42:09.874Z,68.20
2022-08-03T23:52:28.549Z,73.88
